sensor_id;sensor_type;location;lat;lon;timestamp;P1;durP1;ratioP1;P2;durP2;ratioP2
72125;SDS011;59999;51.676;22.650;2024-03-23T00:53:30;28.00;;;12.27;;
72125;SDS011;59999;51.676;22.650;2024-03-23T00:55:57;26.60;;;12.05;;
72125;SDS011;59999;51.676;22.650;2024-03-23T00:58:23;28.87;;;12.00;;
72125;SDS011;59999;51.676;22.650;2024-03-23T01:00:49;28.00;;;11.45;;
72125;SDS011;59999;51.676;22.650;2024-03-23T01:03:14;30.27;;;12.00;;
72125;SDS011;59999;51.676;22.650;2024-03-23T01:05:40;27.23;;;12.43;;
72125;SDS011;59999;51.676;22.650;2024-03-23T01:08:06;32.58;;;12.13;;
72125;SDS011;59999;51.676;22.650;2024-03-23T01:10:32;28.63;;;11.80;;
72125;SDS011;59999;51.676;22.650;2024-03-23T01:12:58;27.30;;;12.60;;
72125;SDS011;59999;51.676;22.650;2024-03-23T01:15:24;24.83;;;10.93;;
72125;SDS011;59999;51.676;22.650;2024-03-23T01:17:49;26.33;;;11.10;;
72125;SDS011;59999;51.676;22.650;2024-03-23T01:20:15;29.00;;;12.55;;
72125;SDS011;59999;51.676;22.650;2024-03-23T01:22:42;27.15;;;11.13;;
72125;SDS011;59999;51.676;22.650;2024-03-23T01:25:08;30.27;;;11.93;;
72125;SDS011;59999;51.676;22.650;2024-03-23T01:27:33;25.60;;;11.48;;
72125;SDS011;59999;51.676;22.650;2024-03-23T01:29:59;26.40;;;11.53;;
72125;SDS011;59999;51.676;22.650;2024-03-23T01:32:25;25.27;;;11.18;;
72125;SDS011;59999;51.676;22.650;2024-03-23T01:34:51;30.63;;;11.45;;
72125;SDS011;59999;51.676;22.650;2024-03-23T01:37:17;25.90;;;10.60;;
72125;SDS011;59999;51.676;22.650;2024-03-23T01:39:43;24.90;;;11.15;;
72125;SDS011;59999;51.676;22.650;2024-03-23T01:42:08;25.67;;;11.63;;
72125;SDS011;59999;51.676;22.650;2024-03-23T01:44:34;30.05;;;11.48;;
72125;SDS011;59999;51.676;22.650;2024-03-23T01:47:00;28.88;;;11.27;;
72125;SDS011;59999;51.676;22.650;2024-03-23T01:49:26;26.42;;;10.73;;
72125;SDS011;59999;51.676;22.650;2024-03-23T01:51:52;26.27;;;11.02;;
72125;SDS011;59999;51.676;22.650;2024-03-23T01:54:18;30.45;;;12.10;;
72125;SDS011;59999;51.676;22.650;2024-03-23T01:56:44;26.85;;;10.90;;
72125;SDS011;59999;51.676;22.650;2024-03-23T01:59:11;30.23;;;12.00;;
72125;SDS011;59999;51.676;22.650;2024-03-23T02:01:36;27.05;;;11.93;;
72125;SDS011;59999;51.676;22.650;2024-03-23T02:04:02;27.70;;;11.87;;
72125;SDS011;59999;51.676;22.650;2024-03-23T02:06:28;30.38;;;11.95;;
72125;SDS011;59999;51.676;22.650;2024-03-23T02:08:55;29.98;;;12.38;;
72125;SDS011;59999;51.676;22.650;2024-03-23T02:11:20;27.20;;;12.02;;
72125;SDS011;59999;51.676;22.650;2024-03-23T02:13:47;30.73;;;12.10;;
72125;SDS011;59999;51.676;22.650;2024-03-23T02:16:12;26.08;;;11.60;;
72125;SDS011;59999;51.676;22.650;2024-03-23T02:18:41;27.92;;;11.55;;
72125;SDS011;59999;51.676;22.650;2024-03-23T02:21:07;28.10;;;11.13;;
72125;SDS011;59999;51.676;22.650;2024-03-23T02:23:33;27.90;;;11.98;;
72125;SDS011;59999;51.676;22.650;2024-03-23T02:25:58;27.50;;;11.20;;
72125;SDS011;59999;51.676;22.650;2024-03-23T02:28:24;26.97;;;10.37;;
72125;SDS011;59999;51.676;22.650;2024-03-23T02:30:50;26.20;;;11.27;;
72125;SDS011;59999;51.676;22.650;2024-03-23T02:33:16;25.43;;;11.10;;
72125;SDS011;59999;51.676;22.650;2024-03-23T02:35:43;24.88;;;10.85;;
72125;SDS011;59999;51.676;22.650;2024-03-23T02:38:09;27.92;;;12.05;;
72125;SDS011;59999;51.676;22.650;2024-03-23T02:40:35;28.27;;;11.40;;
72125;SDS011;59999;51.676;22.650;2024-03-23T02:43:02;28.35;;;11.25;;
72125;SDS011;59999;51.676;22.650;2024-03-23T02:45:29;27.95;;;11.05;;
72125;SDS011;59999;51.676;22.650;2024-03-23T02:47:55;31.55;;;11.23;;
72125;SDS011;59999;51.676;22.650;2024-03-23T02:50:21;28.58;;;11.63;;
72125;SDS011;59999;51.676;22.650;2024-03-23T02:52:48;27.47;;;11.33;;
72125;SDS011;59999;51.676;22.650;2024-03-23T02:55:14;26.25;;;10.90;;
72125;SDS011;59999;51.676;22.650;2024-03-23T02:57:40;29.17;;;11.80;;
72125;SDS011;59999;51.676;22.650;2024-03-23T03:00:06;29.90;;;12.27;;
72125;SDS011;59999;51.676;22.650;2024-03-23T03:02:33;30.50;;;11.32;;
72125;SDS011;59999;51.676;22.650;2024-03-23T03:04:59;29.70;;;12.20;;
72125;SDS011;59999;51.676;22.650;2024-03-23T03:07:25;29.52;;;12.80;;
72125;SDS011;59999;51.676;22.650;2024-03-23T03:09:51;32.17;;;13.40;;
72125;SDS011;59999;51.676;22.650;2024-03-23T03:12:17;32.45;;;12.50;;
72125;SDS011;59999;51.676;22.650;2024-03-23T03:14:43;32.97;;;12.93;;
72125;SDS011;59999;51.676;22.650;2024-03-23T03:17:09;34.00;;;12.38;;
72125;SDS011;59999;51.676;22.650;2024-03-23T03:19:34;34.80;;;12.20;;
72125;SDS011;59999;51.676;22.650;2024-03-23T03:22:00;33.03;;;12.48;;
72125;SDS011;59999;51.676;22.650;2024-03-23T03:24:26;30.47;;;12.27;;
72125;SDS011;59999;51.676;22.650;2024-03-23T03:26:52;32.58;;;12.27;;
72125;SDS011;59999;51.676;22.650;2024-03-23T03:29:18;29.37;;;12.57;;
72125;SDS011;59999;51.676;22.650;2024-03-23T03:31:44;32.88;;;13.50;;
72125;SDS011;59999;51.676;22.650;2024-03-23T03:34:09;36.08;;;14.38;;
72125;SDS011;59999;51.676;22.650;2024-03-23T03:36:36;27.05;;;10.00;;
72125;SDS011;59999;51.676;22.650;2024-03-23T03:39:01;35.38;;;14.18;;
72125;SDS011;59999;51.676;22.650;2024-03-23T03:41:31;30.60;;;12.02;;
72125;SDS011;59999;51.676;22.650;2024-03-23T03:43:57;33.92;;;12.65;;
72125;SDS011;59999;51.676;22.650;2024-03-23T03:46:27;33.20;;;13.13;;
72125;SDS011;59999;51.676;22.650;2024-03-23T03:48:56;31.58;;;13.95;;
72125;SDS011;59999;51.676;22.650;2024-03-23T03:51:22;32.80;;;12.27;;
72125;SDS011;59999;51.676;22.650;2024-03-23T03:53:48;32.13;;;12.13;;
72125;SDS011;59999;51.676;22.650;2024-03-23T03:56:14;33.38;;;13.50;;
72125;SDS011;59999;51.676;22.650;2024-03-23T03:58:39;27.25;;;9.70;;
72125;SDS011;59999;51.676;22.650;2024-03-23T04:01:05;26.53;;;11.17;;
72125;SDS011;59999;51.676;22.650;2024-03-23T04:03:31;26.33;;;9.52;;
72125;SDS011;59999;51.676;22.650;2024-03-23T04:05:57;30.35;;;12.13;;
72125;SDS011;59999;51.676;22.650;2024-03-23T04:08:23;30.80;;;12.40;;
72125;SDS011;59999;51.676;22.650;2024-03-23T04:10:49;32.75;;;13.05;;
72125;SDS011;59999;51.676;22.650;2024-03-23T04:13:15;33.63;;;12.87;;
72125;SDS011;59999;51.676;22.650;2024-03-23T04:15:42;30.15;;;12.07;;
72125;SDS011;59999;51.676;22.650;2024-03-23T04:18:07;31.13;;;12.13;;
72125;SDS011;59999;51.676;22.650;2024-03-23T04:20:33;34.97;;;12.85;;
72125;SDS011;59999;51.676;22.650;2024-03-23T04:22:59;30.97;;;12.87;;
72125;SDS011;59999;51.676;22.650;2024-03-23T04:25:26;34.30;;;12.52;;
72125;SDS011;59999;51.676;22.650;2024-03-23T04:27:51;33.90;;;13.23;;
72125;SDS011;59999;51.676;22.650;2024-03-23T04:30:18;33.72;;;13.23;;
72125;SDS011;59999;51.676;22.650;2024-03-23T04:32:44;34.35;;;12.90;;
72125;SDS011;59999;51.676;22.650;2024-03-23T04:35:10;29.73;;;11.32;;
72125;SDS011;59999;51.676;22.650;2024-03-23T04:37:36;31.15;;;11.95;;
72125;SDS011;59999;51.676;22.650;2024-03-23T04:40:03;32.70;;;11.93;;
72125;SDS011;59999;51.676;22.650;2024-03-23T04:42:29;40.08;;;14.38;;
72125;SDS011;59999;51.676;22.650;2024-03-23T04:44:56;34.75;;;13.20;;
72125;SDS011;59999;51.676;22.650;2024-03-23T04:47:22;38.67;;;13.63;;
72125;SDS011;59999;51.676;22.650;2024-03-23T04:49:48;35.80;;;13.88;;
72125;SDS011;59999;51.676;22.650;2024-03-23T04:52:15;34.33;;;13.40;;
72125;SDS011;59999;51.676;22.650;2024-03-23T04:54:41;32.72;;;12.38;;
72125;SDS011;59999;51.676;22.650;2024-03-23T04:57:07;35.75;;;12.93;;
72125;SDS011;59999;51.676;22.650;2024-03-23T04:59:33;31.53;;;11.43;;
72125;SDS011;59999;51.676;22.650;2024-03-23T05:01:59;34.40;;;12.27;;
72125;SDS011;59999;51.676;22.650;2024-03-23T05:04:26;34.60;;;12.73;;
72125;SDS011;59999;51.676;22.650;2024-03-23T05:06:52;30.80;;;12.43;;
72125;SDS011;59999;51.676;22.650;2024-03-23T05:09:18;31.23;;;12.68;;
72125;SDS011;59999;51.676;22.650;2024-03-23T05:11:44;32.95;;;11.00;;
72125;SDS011;59999;51.676;22.650;2024-03-23T05:14:12;29.95;;;10.80;;
72125;SDS011;59999;51.676;22.650;2024-03-23T05:16:38;32.63;;;11.85;;
72125;SDS011;59999;51.676;22.650;2024-03-23T05:19:05;30.15;;;11.18;;
72125;SDS011;59999;51.676;22.650;2024-03-23T05:21:30;32.92;;;13.70;;
72125;SDS011;59999;51.676;22.650;2024-03-23T05:23:56;37.77;;;12.27;;
72125;SDS011;59999;51.676;22.650;2024-03-23T05:26:22;35.65;;;13.65;;
72125;SDS011;59999;51.676;22.650;2024-03-23T05:28:49;35.05;;;12.52;;
72125;SDS011;59999;51.676;22.650;2024-03-23T05:31:24;36.53;;;12.93;;
72125;SDS011;59999;51.676;22.650;2024-03-23T05:33:51;32.35;;;12.05;;
72125;SDS011;59999;51.676;22.650;2024-03-23T05:36:17;34.70;;;12.05;;
72125;SDS011;59999;51.676;22.650;2024-03-23T05:38:43;33.53;;;12.03;;
72125;SDS011;59999;51.676;22.650;2024-03-23T05:41:09;29.98;;;11.18;;
72125;SDS011;59999;51.676;22.650;2024-03-23T05:43:35;30.10;;;11.98;;
72125;SDS011;59999;51.676;22.650;2024-03-23T05:46:01;29.10;;;12.30;;
72125;SDS011;59999;51.676;22.650;2024-03-23T05:48:28;30.98;;;10.82;;
72125;SDS011;59999;51.676;22.650;2024-03-23T05:50:55;32.30;;;12.20;;
72125;SDS011;59999;51.676;22.650;2024-03-23T05:53:21;29.67;;;11.52;;
72125;SDS011;59999;51.676;22.650;2024-03-23T05:55:47;34.80;;;12.60;;
72125;SDS011;59999;51.676;22.650;2024-03-23T05:58:14;31.40;;;12.65;;
72125;SDS011;59999;51.676;22.650;2024-03-23T06:00:41;30.45;;;10.65;;
72125;SDS011;59999;51.676;22.650;2024-03-23T06:03:10;35.15;;;13.07;;
72125;SDS011;59999;51.676;22.650;2024-03-23T06:05:36;33.53;;;13.68;;
72125;SDS011;59999;51.676;22.650;2024-03-23T06:08:03;33.67;;;12.80;;
72125;SDS011;59999;51.676;22.650;2024-03-23T06:10:29;31.40;;;11.73;;
72125;SDS011;59999;51.676;22.650;2024-03-23T06:12:55;31.08;;;11.73;;
72125;SDS011;59999;51.676;22.650;2024-03-23T06:15:21;31.93;;;11.93;;
72125;SDS011;59999;51.676;22.650;2024-03-23T06:17:48;32.00;;;11.77;;
72125;SDS011;59999;51.676;22.650;2024-03-23T06:20:14;30.95;;;12.48;;
72125;SDS011;59999;51.676;22.650;2024-03-23T06:22:40;33.50;;;12.57;;
72125;SDS011;59999;51.676;22.650;2024-03-23T06:25:06;31.90;;;12.43;;
72125;SDS011;59999;51.676;22.650;2024-03-23T06:27:32;40.45;;;14.18;;
72125;SDS011;59999;51.676;22.650;2024-03-23T06:29:59;35.40;;;12.90;;
72125;SDS011;59999;51.676;22.650;2024-03-23T06:32:25;38.95;;;13.95;;
72125;SDS011;59999;51.676;22.650;2024-03-23T06:34:51;34.95;;;12.55;;
72125;SDS011;59999;51.676;22.650;2024-03-23T06:37:16;35.97;;;12.48;;
72125;SDS011;59999;51.676;22.650;2024-03-23T06:39:42;37.17;;;12.83;;
72125;SDS011;59999;51.676;22.650;2024-03-23T06:42:08;34.30;;;12.70;;
72125;SDS011;59999;51.676;22.650;2024-03-23T06:44:34;32.13;;;11.13;;
72125;SDS011;59999;51.676;22.650;2024-03-23T06:47:00;36.20;;;13.07;;
72125;SDS011;59999;51.676;22.650;2024-03-23T06:49:26;33.03;;;12.50;;
72125;SDS011;59999;51.676;22.650;2024-03-23T06:51:52;33.53;;;12.13;;
72125;SDS011;59999;51.676;22.650;2024-03-23T06:54:17;31.95;;;12.45;;
72125;SDS011;59999;51.676;22.650;2024-03-23T06:56:44;34.45;;;12.13;;
72125;SDS011;59999;51.676;22.650;2024-03-23T06:59:10;34.27;;;12.13;;
72125;SDS011;59999;51.676;22.650;2024-03-23T07:01:36;32.05;;;11.73;;
72125;SDS011;59999;51.676;22.650;2024-03-23T07:04:02;39.00;;;13.03;;
72125;SDS011;59999;51.676;22.650;2024-03-23T07:06:29;33.25;;;12.80;;
72125;SDS011;59999;51.676;22.650;2024-03-23T07:08:55;37.75;;;13.85;;
72125;SDS011;59999;51.676;22.650;2024-03-23T07:11:22;33.92;;;13.13;;
72125;SDS011;59999;51.676;22.650;2024-03-23T07:13:51;38.33;;;13.40;;
72125;SDS011;59999;51.676;22.650;2024-03-23T07:16:20;33.35;;;12.20;;
72125;SDS011;59999;51.676;22.650;2024-03-23T07:18:46;28.67;;;11.75;;
72125;SDS011;59999;51.676;22.650;2024-03-23T07:21:12;36.55;;;14.02;;
72125;SDS011;59999;51.676;22.650;2024-03-23T07:23:37;34.77;;;13.77;;
72125;SDS011;59999;51.676;22.650;2024-03-23T07:26:04;33.28;;;12.95;;
72125;SDS011;59999;51.676;22.650;2024-03-23T07:28:34;35.00;;;14.05;;
72125;SDS011;59999;51.676;22.650;2024-03-23T07:31:02;36.05;;;13.40;;
72125;SDS011;59999;51.676;22.650;2024-03-23T07:33:28;35.50;;;13.67;;
72125;SDS011;59999;51.676;22.650;2024-03-23T07:35:54;38.72;;;12.90;;
72125;SDS011;59999;51.676;22.650;2024-03-23T07:38:20;36.53;;;12.90;;
72125;SDS011;59999;51.676;22.650;2024-03-23T07:40:46;34.07;;;11.87;;
72125;SDS011;59999;51.676;22.650;2024-03-23T07:43:11;29.38;;;11.82;;
72125;SDS011;59999;51.676;22.650;2024-03-23T07:45:37;33.72;;;13.65;;
72125;SDS011;59999;51.676;22.650;2024-03-23T07:48:03;36.60;;;13.82;;
72125;SDS011;59999;51.676;22.650;2024-03-23T07:50:30;36.15;;;14.45;;
72125;SDS011;59999;51.676;22.650;2024-03-23T07:52:55;40.03;;;15.97;;
72125;SDS011;59999;51.676;22.650;2024-03-23T07:55:21;39.08;;;15.20;;
72125;SDS011;59999;51.676;22.650;2024-03-23T07:57:47;36.33;;;12.70;;
72125;SDS011;59999;51.676;22.650;2024-03-23T08:00:13;37.13;;;14.45;;
72125;SDS011;59999;51.676;22.650;2024-03-23T08:02:39;38.42;;;15.73;;
72125;SDS011;59999;51.676;22.650;2024-03-23T08:05:05;42.33;;;15.67;;
72125;SDS011;59999;51.676;22.650;2024-03-23T08:07:31;43.50;;;15.38;;
72125;SDS011;59999;51.676;22.650;2024-03-23T08:09:57;41.38;;;15.40;;
72125;SDS011;59999;51.676;22.650;2024-03-23T08:12:24;36.13;;;14.20;;
72125;SDS011;59999;51.676;22.650;2024-03-23T08:14:50;36.57;;;13.37;;
72125;SDS011;59999;51.676;22.650;2024-03-23T08:17:16;42.95;;;15.13;;
72125;SDS011;59999;51.676;22.650;2024-03-23T08:19:42;36.57;;;14.53;;
72125;SDS011;59999;51.676;22.650;2024-03-23T08:22:08;31.60;;;12.20;;
72125;SDS011;59999;51.676;22.650;2024-03-23T08:24:34;33.83;;;14.20;;
72125;SDS011;59999;51.676;22.650;2024-03-23T08:27:00;31.92;;;11.75;;
72125;SDS011;59999;51.676;22.650;2024-03-23T08:29:26;34.20;;;12.90;;
72125;SDS011;59999;51.676;22.650;2024-03-23T08:31:52;36.97;;;14.05;;
72125;SDS011;59999;51.676;22.650;2024-03-23T08:34:18;37.28;;;12.52;;
72125;SDS011;59999;51.676;22.650;2024-03-23T08:36:43;30.10;;;11.43;;
72125;SDS011;59999;51.676;22.650;2024-03-23T08:39:09;29.60;;;10.98;;
72125;SDS011;59999;51.676;22.650;2024-03-23T08:41:35;31.30;;;10.87;;
72125;SDS011;59999;51.676;22.650;2024-03-23T08:44:01;26.20;;;10.65;;
72125;SDS011;59999;51.676;22.650;2024-03-23T08:46:26;28.33;;;12.30;;
72125;SDS011;59999;51.676;22.650;2024-03-23T08:48:53;26.02;;;10.65;;
72125;SDS011;59999;51.676;22.650;2024-03-23T08:51:18;35.13;;;12.50;;
72125;SDS011;59999;51.676;22.650;2024-03-23T08:53:45;23.83;;;10.05;;
72125;SDS011;59999;51.676;22.650;2024-03-23T08:56:11;25.48;;;10.00;;
72125;SDS011;59999;51.676;22.650;2024-03-23T08:58:37;27.38;;;10.98;;
72125;SDS011;59999;51.676;22.650;2024-03-23T09:01:11;27.05;;;10.48;;
72125;SDS011;59999;51.676;22.650;2024-03-23T09:03:41;29.33;;;12.02;;
72125;SDS011;59999;51.676;22.650;2024-03-23T09:06:08;27.52;;;10.88;;
72125;SDS011;59999;51.676;22.650;2024-03-23T09:08:34;23.95;;;10.13;;
72125;SDS011;59999;51.676;22.650;2024-03-23T09:11:09;29.20;;;10.35;;
72125;SDS011;59999;51.676;22.650;2024-03-23T09:13:36;29.98;;;11.23;;
72125;SDS011;59999;51.676;22.650;2024-03-23T09:16:03;25.33;;;10.30;;
72125;SDS011;59999;51.676;22.650;2024-03-23T09:18:34;25.55;;;10.80;;
72125;SDS011;59999;51.676;22.650;2024-03-23T09:21:03;30.13;;;11.93;;
72125;SDS011;59999;51.676;22.650;2024-03-23T09:23:30;30.42;;;12.30;;
72125;SDS011;59999;51.676;22.650;2024-03-23T09:25:55;28.00;;;11.80;;
72125;SDS011;59999;51.676;22.650;2024-03-23T09:28:21;26.85;;;10.77;;
72125;SDS011;59999;51.676;22.650;2024-03-23T09:30:47;27.77;;;11.07;;
72125;SDS011;59999;51.676;22.650;2024-03-23T09:33:13;25.93;;;10.47;;
72125;SDS011;59999;51.676;22.650;2024-03-23T09:35:40;25.17;;;10.75;;
72125;SDS011;59999;51.676;22.650;2024-03-23T09:38:07;23.65;;;10.60;;
72125;SDS011;59999;51.676;22.650;2024-03-23T09:40:34;26.00;;;10.13;;
72125;SDS011;59999;51.676;22.650;2024-03-23T09:43:00;24.58;;;9.68;;
72125;SDS011;59999;51.676;22.650;2024-03-23T09:45:27;23.85;;;9.88;;
72125;SDS011;59999;51.676;22.650;2024-03-23T09:47:56;25.80;;;9.65;;
72125;SDS011;59999;51.676;22.650;2024-03-23T09:50:22;21.17;;;8.80;;
72125;SDS011;59999;51.676;22.650;2024-03-23T09:52:48;24.98;;;9.77;;
72125;SDS011;59999;51.676;22.650;2024-03-23T09:55:14;23.45;;;8.85;;
72125;SDS011;59999;51.676;22.650;2024-03-23T09:57:41;20.60;;;8.73;;
72125;SDS011;59999;51.676;22.650;2024-03-23T10:00:07;23.75;;;9.20;;
72125;SDS011;59999;51.676;22.650;2024-03-23T10:02:34;23.00;;;8.70;;
72125;SDS011;59999;51.676;22.650;2024-03-23T10:05:00;22.52;;;8.73;;
72125;SDS011;59999;51.676;22.650;2024-03-23T10:07:27;23.10;;;8.95;;
72125;SDS011;59999;51.676;22.650;2024-03-23T10:09:55;21.42;;;8.77;;
72125;SDS011;59999;51.676;22.650;2024-03-23T10:12:23;22.10;;;9.50;;
72125;SDS011;59999;51.676;22.650;2024-03-23T10:14:49;21.87;;;8.83;;
72125;SDS011;59999;51.676;22.650;2024-03-23T10:17:16;23.30;;;9.02;;
72125;SDS011;59999;51.676;22.650;2024-03-23T10:19:44;20.73;;;8.65;;
72125;SDS011;59999;51.676;22.650;2024-03-23T10:22:17;23.17;;;8.43;;
72125;SDS011;59999;51.676;22.650;2024-03-23T10:24:44;24.35;;;9.48;;
72125;SDS011;59999;51.676;22.650;2024-03-23T10:27:15;27.23;;;11.07;;
72125;SDS011;59999;51.676;22.650;2024-03-23T10:29:43;24.60;;;9.93;;
72125;SDS011;59999;51.676;22.650;2024-03-23T10:32:10;23.73;;;9.80;;
72125;SDS011;59999;51.676;22.650;2024-03-23T10:34:37;21.23;;;8.48;;
72125;SDS011;59999;51.676;22.650;2024-03-23T10:37:04;19.27;;;7.45;;
72125;SDS011;59999;51.676;22.650;2024-03-23T10:42:10;24.83;;;10.27;;
72125;SDS011;59999;51.676;22.650;2024-03-23T10:44:36;27.58;;;10.95;;
72125;SDS011;59999;51.676;22.650;2024-03-23T10:47:02;24.50;;;9.77;;
72125;SDS011;59999;51.676;22.650;2024-03-23T10:49:29;22.55;;;9.82;;
72125;SDS011;59999;51.676;22.650;2024-03-23T10:51:59;21.17;;;8.77;;
72125;SDS011;59999;51.676;22.650;2024-03-23T10:54:26;22.30;;;9.20;;
72125;SDS011;59999;51.676;22.650;2024-03-23T10:56:54;21.83;;;8.73;;
72125;SDS011;59999;51.676;22.650;2024-03-23T10:59:25;22.17;;;9.88;;
72125;SDS011;59999;51.676;22.650;2024-03-23T11:01:55;20.05;;;8.63;;
72125;SDS011;59999;51.676;22.650;2024-03-23T11:04:31;22.37;;;9.50;;
72125;SDS011;59999;51.676;22.650;2024-03-23T11:09:59;22.88;;;9.00;;
72125;SDS011;59999;51.676;22.650;2024-03-23T11:12:26;21.42;;;8.82;;
72125;SDS011;59999;51.676;22.650;2024-03-23T11:14:54;19.08;;;8.45;;
72125;SDS011;59999;51.676;22.650;2024-03-23T11:17:25;18.77;;;7.60;;
72125;SDS011;59999;51.676;22.650;2024-03-23T11:20:02;20.45;;;8.40;;
72125;SDS011;59999;51.676;22.650;2024-03-23T11:27:38;19.85;;;8.55;;
72125;SDS011;59999;51.676;22.650;2024-03-23T11:30:11;17.77;;;7.57;;
72125;SDS011;59999;51.676;22.650;2024-03-23T11:32:37;18.30;;;7.63;;
72125;SDS011;59999;51.676;22.650;2024-03-23T11:35:03;17.80;;;7.55;;
72125;SDS011;59999;51.676;22.650;2024-03-23T11:37:29;18.58;;;8.20;;
72125;SDS011;59999;51.676;22.650;2024-03-23T11:39:55;18.27;;;8.27;;
72125;SDS011;59999;51.676;22.650;2024-03-23T11:42:21;18.52;;;8.70;;
72125;SDS011;59999;51.676;22.650;2024-03-23T11:44:47;18.95;;;7.85;;
72125;SDS011;59999;51.676;22.650;2024-03-23T11:47:13;20.10;;;8.30;;
72125;SDS011;59999;51.676;22.650;2024-03-23T11:49:39;17.02;;;7.90;;
72125;SDS011;59999;51.676;22.650;2024-03-23T11:52:06;21.45;;;8.05;;
72125;SDS011;59999;51.676;22.650;2024-03-23T11:54:33;17.20;;;7.30;;
72125;SDS011;59999;51.676;22.650;2024-03-23T11:57:02;17.43;;;7.90;;
72125;SDS011;59999;51.676;22.650;2024-03-23T11:59:39;17.77;;;7.60;;
72125;SDS011;59999;51.676;22.650;2024-03-23T12:02:12;18.17;;;7.93;;
72125;SDS011;59999;51.676;22.650;2024-03-23T12:04:41;18.00;;;7.07;;
72125;SDS011;59999;51.676;22.650;2024-03-23T12:09:39;19.35;;;8.18;;
72125;SDS011;59999;51.676;22.650;2024-03-23T12:12:07;16.65;;;7.30;;
72125;SDS011;59999;51.676;22.650;2024-03-23T12:14:34;16.48;;;7.03;;
72125;SDS011;59999;51.676;22.650;2024-03-23T12:17:12;16.73;;;7.13;;
72125;SDS011;59999;51.676;22.650;2024-03-23T12:19:39;17.17;;;7.15;;
72125;SDS011;59999;51.676;22.650;2024-03-23T12:22:07;14.60;;;7.22;;
72125;SDS011;59999;51.676;22.650;2024-03-23T12:24:36;15.48;;;6.50;;
72125;SDS011;59999;51.676;22.650;2024-03-23T12:27:02;17.10;;;7.73;;
72125;SDS011;59999;51.676;22.650;2024-03-23T12:29:32;18.70;;;7.97;;
72125;SDS011;59999;51.676;22.650;2024-03-23T12:31:59;17.13;;;7.43;;
72125;SDS011;59999;51.676;22.650;2024-03-23T12:34:26;16.47;;;6.90;;
72125;SDS011;59999;51.676;22.650;2024-03-23T12:36:52;16.75;;;6.78;;
72125;SDS011;59999;51.676;22.650;2024-03-23T12:39:19;16.17;;;7.20;;
72125;SDS011;59999;51.676;22.650;2024-03-23T12:41:46;16.60;;;7.70;;
72125;SDS011;59999;51.676;22.650;2024-03-23T12:44:13;15.43;;;7.13;;
72125;SDS011;59999;51.676;22.650;2024-03-23T12:46:40;16.13;;;7.13;;
72125;SDS011;59999;51.676;22.650;2024-03-23T12:49:07;18.08;;;7.80;;
72125;SDS011;59999;51.676;22.650;2024-03-23T12:51:33;16.42;;;7.90;;
72125;SDS011;59999;51.676;22.650;2024-03-23T12:53:59;16.75;;;7.82;;
72125;SDS011;59999;51.676;22.650;2024-03-23T12:56:25;18.87;;;8.07;;
72125;SDS011;59999;51.676;22.650;2024-03-23T12:58:51;16.10;;;6.68;;
72125;SDS011;59999;51.676;22.650;2024-03-23T13:01:18;17.02;;;7.32;;
72125;SDS011;59999;51.676;22.650;2024-03-23T13:03:48;16.23;;;7.68;;
72125;SDS011;59999;51.676;22.650;2024-03-23T13:06:14;15.90;;;7.03;;
72125;SDS011;59999;51.676;22.650;2024-03-23T13:08:41;14.20;;;7.30;;
72125;SDS011;59999;51.676;22.650;2024-03-23T13:11:08;14.77;;;6.50;;
72125;SDS011;59999;51.676;22.650;2024-03-23T13:13:36;15.80;;;7.30;;
72125;SDS011;59999;51.676;22.650;2024-03-23T13:16:02;15.18;;;7.50;;
72125;SDS011;59999;51.676;22.650;2024-03-23T13:18:29;20.38;;;7.63;;
72125;SDS011;59999;51.676;22.650;2024-03-23T13:20:55;15.53;;;6.87;;
72125;SDS011;59999;51.676;22.650;2024-03-23T13:23:21;14.13;;;6.93;;
72125;SDS011;59999;51.676;22.650;2024-03-23T13:25:53;14.40;;;6.85;;
72125;SDS011;59999;51.676;22.650;2024-03-23T13:28:21;17.03;;;7.40;;
72125;SDS011;59999;51.676;22.650;2024-03-23T13:30:54;14.18;;;7.03;;
72125;SDS011;59999;51.676;22.650;2024-03-23T13:33:21;15.88;;;7.10;;
72125;SDS011;59999;51.676;22.650;2024-03-23T13:35:53;19.55;;;7.85;;
72125;SDS011;59999;51.676;22.650;2024-03-23T13:38:21;13.80;;;6.70;;
72125;SDS011;59999;51.676;22.650;2024-03-23T13:43:19;19.45;;;8.45;;
72125;SDS011;59999;51.676;22.650;2024-03-23T13:45:51;14.82;;;6.88;;
72125;SDS011;59999;51.676;22.650;2024-03-23T13:48:20;16.13;;;7.07;;
72125;SDS011;59999;51.676;22.650;2024-03-23T13:50:47;16.08;;;6.75;;
72125;SDS011;59999;51.676;22.650;2024-03-23T13:53:16;14.05;;;6.97;;
72125;SDS011;59999;51.676;22.650;2024-03-23T13:55:48;17.02;;;7.55;;
72125;SDS011;59999;51.676;22.650;2024-03-23T13:58:15;15.18;;;7.40;;
72125;SDS011;59999;51.676;22.650;2024-03-23T14:00:41;14.73;;;6.97;;
72125;SDS011;59999;51.676;22.650;2024-03-23T14:03:10;14.95;;;6.72;;
72125;SDS011;59999;51.676;22.650;2024-03-23T14:05:37;14.65;;;6.72;;
72125;SDS011;59999;51.676;22.650;2024-03-23T14:08:06;15.85;;;6.68;;
72125;SDS011;59999;51.676;22.650;2024-03-23T14:10:33;15.02;;;7.20;;
72125;SDS011;59999;51.676;22.650;2024-03-23T14:12:59;15.37;;;7.73;;
72125;SDS011;59999;51.676;22.650;2024-03-23T14:15:28;14.65;;;6.65;;
72125;SDS011;59999;51.676;22.650;2024-03-23T14:17:56;14.70;;;6.97;;
72125;SDS011;59999;51.676;22.650;2024-03-23T14:20:22;15.05;;;6.18;;
72125;SDS011;59999;51.676;22.650;2024-03-23T14:22:49;12.98;;;5.70;;
72125;SDS011;59999;51.676;22.650;2024-03-23T14:25:15;13.03;;;6.30;;
72125;SDS011;59999;51.676;22.650;2024-03-23T14:27:43;14.70;;;6.93;;
72125;SDS011;59999;51.676;22.650;2024-03-23T14:30:09;15.35;;;6.82;;
72125;SDS011;59999;51.676;22.650;2024-03-23T14:32:35;12.52;;;6.55;;
72125;SDS011;59999;51.676;22.650;2024-03-23T14:35:03;15.10;;;7.65;;
72125;SDS011;59999;51.676;22.650;2024-03-23T14:37:29;12.57;;;6.37;;
72125;SDS011;59999;51.676;22.650;2024-03-23T14:39:55;15.18;;;6.57;;
72125;SDS011;59999;51.676;22.650;2024-03-23T14:42:22;13.52;;;6.97;;
72125;SDS011;59999;51.676;22.650;2024-03-23T14:44:49;13.90;;;7.05;;
72125;SDS011;59999;51.676;22.650;2024-03-23T14:47:19;13.93;;;6.90;;
72125;SDS011;59999;51.676;22.650;2024-03-23T14:49:45;14.05;;;6.47;;
72125;SDS011;59999;51.676;22.650;2024-03-23T14:52:16;15.27;;;7.50;;
72125;SDS011;59999;51.676;22.650;2024-03-23T14:54:42;15.15;;;7.68;;
72125;SDS011;59999;51.676;22.650;2024-03-23T14:57:09;12.57;;;6.87;;
72125;SDS011;59999;51.676;22.650;2024-03-23T14:59:35;14.70;;;6.65;;
72125;SDS011;59999;51.676;22.650;2024-03-23T15:02:04;13.73;;;7.38;;
72125;SDS011;59999;51.676;22.650;2024-03-23T15:04:30;17.20;;;7.25;;
72125;SDS011;59999;51.676;22.650;2024-03-23T15:06:56;13.80;;;7.35;;
72125;SDS011;59999;51.676;22.650;2024-03-23T15:09:22;13.40;;;7.03;;
72125;SDS011;59999;51.676;22.650;2024-03-23T15:11:47;15.75;;;7.60;;
72125;SDS011;59999;51.676;22.650;2024-03-23T15:14:13;15.10;;;7.43;;
72125;SDS011;59999;51.676;22.650;2024-03-23T15:16:39;15.05;;;7.28;;
72125;SDS011;59999;51.676;22.650;2024-03-23T15:19:06;16.65;;;7.82;;